sensor_id;sensor_type;location;lat;lon;timestamp;pressure;altitude;pressure_sealevel;temperature;humidity
51299;BME280;37382;45.192;9.790;2023-02-28T05:07:01;101903.44;;;4.60;100.00
51299;BME280;37382;45.192;9.790;2023-02-28T05:09:29;101900.91;;;4.69;100.00
51299;BME280;37382;45.192;9.790;2023-02-28T05:11:56;101902.78;;;4.68;100.00
51299;BME280;37382;45.192;9.790;2023-02-28T05:14:25;101894.56;;;4.91;100.00
51299;BME280;37382;45.192;9.790;2023-02-28T05:16:52;101895.94;;;5.06;100.00
51299;BME280;37382;45.192;9.790;2023-02-28T05:19:20;101884.88;;;5.09;100.00
51299;BME280;37382;45.192;9.790;2023-02-28T05:21:51;101888.44;;;4.89;100.00
51299;BME280;37382;45.192;9.790;2023-02-28T05:24:20;101887.19;;;4.93;100.00
51299;BME280;37382;45.192;9.790;2023-02-28T05:26:51;101894.56;;;4.70;100.00
51299;BME280;37382;45.192;9.790;2023-02-28T05:29:20;101892.03;;;4.78;100.00
51299;BME280;37382;45.192;9.790;2023-02-28T05:31:48;101898.19;;;4.80;100.00
51299;BME280;37382;45.192;9.790;2023-02-28T05:34:16;101905.53;;;4.78;100.00
51299;BME280;37382;45.192;9.790;2023-02-28T05:36:43;101905.53;;;4.24;100.00
51299;BME280;37382;45.192;9.790;2023-02-28T05:39:11;101904.53;;;4.25;100.00
51299;BME280;37382;45.192;9.790;2023-02-28T05:41:43;101898.72;;;4.74;100.00
51299;BME280;37382;45.192;9.790;2023-02-28T05:44:10;101894.22;;;4.84;100.00
51299;BME280;37382;45.192;9.790;2023-02-28T05:46:38;101899.47;;;4.86;100.00
51299;BME280;37382;45.192;9.790;2023-02-28T05:49:06;101887.53;;;4.99;100.00
51299;BME280;37382;45.192;9.790;2023-02-28T05:51:34;101885.28;;;5.05;100.00
51299;BME280;37382;45.192;9.790;2023-02-28T05:54:03;101878.84;;;4.75;100.00
51299;BME280;37382;45.192;9.790;2023-02-28T05:56:32;101890.50;;;4.96;100.00
51299;BME280;37382;45.192;9.790;2023-02-28T05:59:01;101900.88;;;4.80;100.00
51299;BME280;37382;45.192;9.790;2023-02-28T06:01:37;101900.53;;;5.15;100.00
51299;BME280;37382;45.192;9.790;2023-02-28T06:04:09;101909.09;;;4.99;100.00
51299;BME280;37382;45.192;9.790;2023-02-28T06:06:51;101913.31;;;4.92;100.00
51299;BME280;37382;45.192;9.790;2023-02-28T06:09:19;101912.47;;;4.92;100.00
51299;BME280;37382;45.192;9.790;2023-02-28T06:11:47;101918.22;;;5.08;100.00
51299;BME280;37382;45.192;9.790;2023-02-28T06:14:17;101928.19;;;5.17;100.00
51299;BME280;37382;45.192;9.790;2023-02-28T06:16:44;101923.22;;;5.13;100.00
51299;BME280;37382;45.192;9.790;2023-02-28T06:19:12;101926.25;;;5.20;100.00
51299;BME280;37382;45.192;9.790;2023-02-28T06:21:40;101925.50;;;5.17;100.00
51299;BME280;37382;45.192;9.790;2023-02-28T06:24:08;101932.56;;;5.09;100.00
51299;BME280;37382;45.192;9.790;2023-02-28T06:26:36;101926.97;;;5.01;100.00
51299;BME280;37382;45.192;9.790;2023-02-28T06:29:03;101931.28;;;5.34;100.00
51299;BME280;37382;45.192;9.790;2023-02-28T06:31:31;101944.25;;;5.19;100.00
51299;BME280;37382;45.192;9.790;2023-02-28T06:33:59;101956.91;;;5.19;100.00
51299;BME280;37382;45.192;9.790;2023-02-28T06:36:26;101950.72;;;5.28;100.00
51299;BME280;37382;45.192;9.790;2023-02-28T06:38:54;101955.09;;;5.50;100.00
51299;BME280;37382;45.192;9.790;2023-02-28T06:41:24;101946.63;;;5.33;100.00
51299;BME280;37382;45.192;9.790;2023-02-28T06:43:53;101952.72;;;5.35;100.00
51299;BME280;37382;45.192;9.790;2023-02-28T06:46:20;101954.72;;;5.33;100.00
51299;BME280;37382;45.192;9.790;2023-02-28T06:48:48;101956.66;;;5.52;100.00
51299;BME280;37382;45.192;9.790;2023-02-28T06:51:19;101953.41;;;5.59;100.00
51299;BME280;37382;45.192;9.790;2023-02-28T06:53:50;101959.34;;;5.01;100.00
51299;BME280;37382;45.192;9.790;2023-02-28T06:56:18;101949.16;;;5.56;100.00
51299;BME280;37382;45.192;9.790;2023-02-28T06:58:51;101951.72;;;5.58;100.00
51299;BME280;37382;45.192;9.790;2023-02-28T07:01:20;101956.34;;;5.77;100.00
51299;BME280;37382;45.192;9.790;2023-02-28T07:03:50;101961.09;;;5.94;100.00
51299;BME280;37382;45.192;9.790;2023-02-28T07:06:20;101960.47;;;5.81;100.00
51299;BME280;37382;45.192;9.790;2023-02-28T07:08:51;101958.91;;;5.78;100.00
51299;BME280;37382;45.192;9.790;2023-02-28T07:11:21;101961.69;;;5.98;100.00
51299;BME280;37382;45.192;9.790;2023-02-28T07:13:54;101960.88;;;5.76;100.00
51299;BME280;37382;45.192;9.790;2023-02-28T07:16:25;101969.63;;;5.90;100.00
51299;BME280;37382;45.192;9.790;2023-02-28T07:18:53;101973.06;;;6.01;100.00
51299;BME280;37382;45.192;9.790;2023-02-28T07:21:21;101971.69;;;6.07;100.00
51299;BME280;37382;45.192;9.790;2023-02-28T07:23:49;101965.63;;;6.25;100.00
51299;BME280;37382;45.192;9.790;2023-02-28T07:26:18;101969.53;;;6.01;100.00
51299;BME280;37382;45.192;9.790;2023-02-28T07:28:47;101979.84;;;6.17;100.00
51299;BME280;37382;45.192;9.790;2023-02-28T07:31:15;101977.84;;;6.29;100.00
51299;BME280;37382;45.192;9.790;2023-02-28T07:33:44;101982.44;;;6.48;100.00
51299;BME280;37382;45.192;9.790;2023-02-28T07:36:15;101976.47;;;6.54;100.00
51299;BME280;37382;45.192;9.790;2023-02-28T07:38:44;101976.91;;;6.69;100.00
51299;BME280;37382;45.192;9.790;2023-02-28T07:41:16;101978.63;;;6.50;100.00
51299;BME280;37382;45.192;9.790;2023-02-28T07:43:44;101978.13;;;6.26;100.00
51299;BME280;37382;45.192;9.790;2023-02-28T07:46:14;101976.00;;;6.29;100.00
51299;BME280;37382;45.192;9.790;2023-02-28T07:48:43;101979.09;;;6.15;100.00
51299;BME280;37382;45.192;9.790;2023-02-28T07:51:11;101983.38;;;6.27;100.00
51299;BME280;37382;45.192;9.790;2023-02-28T07:53:38;101978.72;;;6.39;100.00
51299;BME280;37382;45.192;9.790;2023-02-28T07:56:06;101986.25;;;5.95;100.00
51299;BME280;37382;45.192;9.790;2023-02-28T07:58:34;101975.22;;;5.98;100.00
51299;BME280;37382;45.192;9.790;2023-02-28T08:01:06;101991.13;;;6.01;100.00
51299;BME280;37382;45.192;9.790;2023-02-28T08:03:34;101991.47;;;6.17;100.00
51299;BME280;37382;45.192;9.790;2023-02-28T08:06:04;101998.00;;;6.15;100.00
51299;BME280;37382;45.192;9.790;2023-02-28T08:08:31;101996.94;;;6.47;100.00
51299;BME280;37382;45.192;9.790;2023-02-28T08:11:02;101997.06;;;6.35;100.00
51299;BME280;37382;45.192;9.790;2023-02-28T08:13:30;101991.66;;;6.35;100.00
51299;BME280;37382;45.192;9.790;2023-02-28T08:16:01;101994.53;;;6.44;100.00
51299;BME280;37382;45.192;9.790;2023-02-28T08:18:29;101998.09;;;6.54;100.00
51299;BME280;37382;45.192;9.790;2023-02-28T08:20:56;101995.13;;;6.57;100.00
51299;BME280;37382;45.192;9.790;2023-02-28T08:23:24;101988.16;;;6.74;100.00
51299;BME280;37382;45.192;9.790;2023-02-28T08:25:55;101994.69;;;6.71;100.00
51299;BME280;37382;45.192;9.790;2023-02-28T08:28:23;101994.97;;;6.49;100.00
51299;BME280;37382;45.192;9.790;2023-02-28T08:30:54;101990.44;;;6.69;100.00
51299;BME280;37382;45.192;9.790;2023-02-28T08:33:22;101995.41;;;6.83;100.00
51299;BME280;37382;45.192;9.790;2023-02-28T08:35:54;102000.53;;;6.86;100.00
51299;BME280;37382;45.192;9.790;2023-02-28T08:38:23;101999.25;;;6.90;100.00
51299;BME280;37382;45.192;9.790;2023-02-28T08:41:01;101997.28;;;6.83;100.00
51299;BME280;37382;45.192;9.790;2023-02-28T08:43:29;101999.94;;;6.73;100.00
51299;BME280;37382;45.192;9.790;2023-02-28T08:45:57;102004.53;;;6.63;100.00
51299;BME280;37382;45.192;9.790;2023-02-28T08:48:26;101999.28;;;6.81;100.00
51299;BME280;37382;45.192;9.790;2023-02-28T08:51:13;102003.53;;;6.83;100.00
51299;BME280;37382;45.192;9.790;2023-02-28T08:53:43;102000.25;;;6.80;100.00
51299;BME280;37382;45.192;9.790;2023-02-28T08:56:13;101997.84;;;6.76;100.00
51299;BME280;37382;45.192;9.790;2023-02-28T08:58:41;102000.81;;;7.03;100.00
51299;BME280;37382;45.192;9.790;2023-02-28T09:01:12;101995.81;;;7.08;100.00
51299;BME280;37382;45.192;9.790;2023-02-28T09:03:41;101993.41;;;7.05;100.00
51299;BME280;37382;45.192;9.790;2023-02-28T09:06:09;102000.66;;;7.14;100.00
51299;BME280;37382;45.192;9.790;2023-02-28T09:08:37;102000.09;;;6.91;100.00
51299;BME280;37382;45.192;9.790;2023-02-28T09:11:06;101998.22;;;7.11;100.00
51299;BME280;37382;45.192;9.790;2023-02-28T09:13:34;101997.63;;;7.46;100.00
51299;BME280;37382;45.192;9.790;2023-02-28T09:16:04;102006.78;;;7.36;100.00
51299;BME280;37382;45.192;9.790;2023-02-28T09:18:34;102001.78;;;7.21;100.00
51299;BME280;37382;45.192;9.790;2023-02-28T09:21:04;101998.78;;;7.24;100.00
51299;BME280;37382;45.192;9.790;2023-02-28T09:23:32;102002.91;;;7.38;100.00
51299;BME280;37382;45.192;9.790;2023-02-28T09:26:00;102003.53;;;7.70;100.00
51299;BME280;37382;45.192;9.790;2023-02-28T09:28:27;102003.31;;;7.91;100.00
51299;BME280;37382;45.192;9.790;2023-02-28T09:30:55;102003.13;;;8.02;100.00
51299;BME280;37382;45.192;9.790;2023-02-28T09:33:25;102007.16;;;7.88;99.86
51299;BME280;37382;45.192;9.790;2023-02-28T09:35:58;101998.13;;;8.07;99.16
51299;BME280;37382;45.192;9.790;2023-02-28T09:38:29;102008.56;;;8.30;94.93
51299;BME280;37382;45.192;9.790;2023-02-28T09:41:03;102008.97;;;8.25;93.88
51299;BME280;37382;45.192;9.790;2023-02-28T09:43:36;102006.00;;;8.56;93.65
51299;BME280;37382;45.192;9.790;2023-02-28T09:46:11;102019.44;;;8.48;92.19
51299;BME280;37382;45.192;9.790;2023-02-28T09:48:44;102018.75;;;8.46;94.63
51299;BME280;37382;45.192;9.790;2023-02-28T09:54:24;102007.19;;;8.16;88.50
51299;BME280;37382;45.192;9.790;2023-02-28T10:00:03;101997.69;;;8.58;90.10
51299;BME280;37382;45.192;9.790;2023-02-28T10:05:17;101998.41;;;8.78;89.48
51299;BME280;37382;45.192;9.790;2023-02-28T10:10:37;102002.53;;;8.36;88.36
51299;BME280;37382;45.192;9.790;2023-02-28T10:13:17;102005.59;;;8.69;86.10
51299;BME280;37382;45.192;9.790;2023-02-28T10:15:51;102012.97;;;8.95;86.45
51299;BME280;37382;45.192;9.790;2023-02-28T10:18:25;102005.66;;;8.95;86.01
51299;BME280;37382;45.192;9.790;2023-02-28T10:20:55;102009.41;;;8.76;84.58
51299;BME280;37382;45.192;9.790;2023-02-28T10:23:37;102011.44;;;8.74;83.86
51299;BME280;37382;45.192;9.790;2023-02-28T10:26:14;102007.31;;;8.88;84.39
51299;BME280;37382;45.192;9.790;2023-02-28T10:28:43;102002.44;;;8.92;85.51
51299;BME280;37382;45.192;9.790;2023-02-28T10:31:20;102003.91;;;8.86;81.37
51299;BME280;37382;45.192;9.790;2023-02-28T10:33:49;102002.09;;;9.13;81.75
51299;BME280;37382;45.192;9.790;2023-02-28T10:36:19;102003.03;;;9.21;83.09
51299;BME280;37382;45.192;9.790;2023-02-28T10:38:51;102002.94;;;9.13;81.85
51299;BME280;37382;45.192;9.790;2023-02-28T10:41:32;101996.66;;;9.31;82.39
51299;BME280;37382;45.192;9.790;2023-02-28T10:44:21;102001.56;;;9.53;82.48
51299;BME280;37382;45.192;9.790;2023-02-28T10:46:50;102008.03;;;9.34;80.25
51299;BME280;37382;45.192;9.790;2023-02-28T10:49:23;102002.44;;;9.62;79.16
51299;BME280;37382;45.192;9.790;2023-02-28T10:51:55;101997.00;;;9.62;77.45
51299;BME280;37382;45.192;9.790;2023-02-28T10:54:32;101998.34;;;9.32;75.65
51299;BME280;37382;45.192;9.790;2023-02-28T10:57:20;101982.59;;;9.61;77.43
51299;BME280;37382;45.192;9.790;2023-02-28T10:59:53;101984.63;;;9.59;76.76
51299;BME280;37382;45.192;9.790;2023-02-28T11:02:35;101984.69;;;9.76;76.14
51299;BME280;37382;45.192;9.790;2023-02-28T11:05:31;101981.03;;;9.93;76.95
51299;BME280;37382;45.192;9.790;2023-02-28T11:08:06;101981.03;;;10.28;75.02
51299;BME280;37382;45.192;9.790;2023-02-28T11:10:38;101970.72;;;10.56;74.09
51299;BME280;37382;45.192;9.790;2023-02-28T11:13:06;101974.00;;;10.60;73.70
51299;BME280;37382;45.192;9.790;2023-02-28T11:15:34;101962.56;;;10.56;73.07
51299;BME280;37382;45.192;9.790;2023-02-28T11:18:29;101962.56;;;10.48;72.25
51299;BME280;37382;45.192;9.790;2023-02-28T11:20:59;101955.28;;;10.57;72.04
51299;BME280;37382;45.192;9.790;2023-02-28T11:23:30;101952.72;;;10.63;72.43
51299;BME280;37382;45.192;9.790;2023-02-28T11:26:01;101955.09;;;10.66;72.49
51299;BME280;37382;45.192;9.790;2023-02-28T11:28:36;101957.13;;;10.81;71.62
51299;BME280;37382;45.192;9.790;2023-02-28T11:33:55;101937.75;;;10.76;69.61
51299;BME280;37382;45.192;9.790;2023-02-28T11:36:31;101931.13;;;10.70;70.90
51299;BME280;37382;45.192;9.790;2023-02-28T11:39:03;101931.13;;;10.70;69.28
51299;BME280;37382;45.192;9.790;2023-02-28T11:46:58;101911.16;;;11.19;69.59
51299;BME280;37382;45.192;9.790;2023-02-28T11:54:52;101893.38;;;10.92;67.23
51299;BME280;37382;45.192;9.790;2023-02-28T12:02:48;101879.16;;;12.08;65.09
51299;BME280;37382;45.192;9.790;2023-02-28T12:05:34;101875.09;;;11.65;66.89
51299;BME280;37382;45.192;9.790;2023-02-28T12:08:06;101873.31;;;11.49;64.23
51299;BME280;37382;45.192;9.790;2023-02-28T12:13:26;101864.72;;;11.60;66.57
51299;BME280;37382;45.192;9.790;2023-02-28T12:27:51;101851.91;;;12.32;64.29
51299;BME280;37382;45.192;9.790;2023-02-28T12:30:26;101843.16;;;12.59;61.76
51299;BME280;37382;45.192;9.790;2023-02-28T12:32:55;101837.63;;;12.68;62.66
51299;BME280;37382;45.192;9.790;2023-02-28T12:35:51;101840.31;;;12.06;60.83
51299;BME280;37382;45.192;9.790;2023-02-28T12:38:26;101834.66;;;12.54;59.81
51299;BME280;37382;45.192;9.790;2023-02-28T12:41:04;101832.25;;;12.74;61.53
51299;BME280;37382;45.192;9.790;2023-02-28T12:43:40;101834.28;;;12.42;61.12
51299;BME280;37382;45.192;9.790;2023-02-28T12:46:17;101826.09;;;11.88;60.66
51299;BME280;37382;45.192;9.790;2023-02-28T12:48:50;101822.59;;;12.87;59.99
51299;BME280;37382;45.192;9.790;2023-02-28T12:51:21;101824.59;;;13.23;59.93
51299;BME280;37382;45.192;9.790;2023-02-28T12:54:56;101813.28;;;13.26;57.90
51299;BME280;37382;45.192;9.790;2023-02-28T12:59:39;101816.19;;;12.79;59.36
51299;BME280;37382;45.192;9.790;2023-02-28T13:05:39;101811.34;;;12.67;56.99
51299;BME280;37382;45.192;9.790;2023-02-28T13:11:06;101801.50;;;12.95;56.69
51299;BME280;37382;45.192;9.790;2023-02-28T13:13:47;101801.44;;;13.04;57.17
51299;BME280;37382;45.192;9.790;2023-02-28T13:16:15;101803.00;;;12.98;58.35
51299;BME280;37382;45.192;9.790;2023-02-28T13:18:45;101796.41;;;13.22;57.97
51299;BME280;37382;45.192;9.790;2023-02-28T13:21:27;101791.50;;;13.84;57.69
51299;BME280;37382;45.192;9.790;2023-02-28T13:34:40;101769.56;;;13.77;54.04
51299;BME280;37382;45.192;9.790;2023-02-28T13:47:44;101765.59;;;13.80;55.60
51299;BME280;37382;45.192;9.790;2023-02-28T14:04:23;101735.25;;;17.89;41.69
51299;BME280;37382;45.192;9.790;2023-02-28T14:07:00;101713.78;;;22.23;37.48
51299;BME280;37382;45.192;9.790;2023-02-28T14:09:38;101703.22;;;22.59;35.92
51299;BME280;37382;45.192;9.790;2023-02-28T14:18:18;101686.16;;;27.57;27.13
51299;BME280;37382;45.192;9.790;2023-02-28T14:20:49;101632.41;;;25.06;28.38
51299;BME280;37382;45.192;9.790;2023-02-28T14:26:13;101517.06;;;27.83;26.22
51299;BME280;37382;45.192;9.790;2023-02-28T14:31:29;101524.50;;;26.95;26.25
51299;BME280;37382;45.192;9.790;2023-02-28T14:37:01;101553.91;;;25.91;26.83
51299;BME280;37382;45.192;9.790;2023-02-28T14:39:30;101598.16;;;20.29;31.02
51299;BME280;37382;45.192;9.790;2023-02-28T14:41:58;101580.13;;;25.80;27.60
51299;BME280;37382;45.192;9.790;2023-02-28T14:44:30;101673.75;;;21.39;31.23
51299;BME280;37382;45.192;9.790;2023-02-28T14:47:01;101619.97;;;21.81;31.82
51299;BME280;37382;45.192;9.790;2023-02-28T14:49:37;101686.47;;;22.15;31.46
51299;BME280;37382;45.192;9.790;2023-02-28T14:54:37;101677.88;;;17.54;36.08
51299;BME280;37382;45.192;9.790;2023-02-28T14:57:05;101667.41;;;20.98;31.94
51299;BME280;37382;45.192;9.790;2023-02-28T14:59:35;101676.13;;;22.10;31.04
51299;BME280;37382;45.192;9.790;2023-02-28T15:02:23;101671.66;;;23.54;30.41
51299;BME280;37382;45.192;9.790;2023-02-28T15:04:56;101686.25;;;17.72;35.90
51299;BME280;37382;45.192;9.790;2023-02-28T15:07:25;101690.97;;;16.61;39.31
51299;BME280;37382;45.192;9.790;2023-02-28T15:10:25;101683.03;;;18.51;35.83
51299;BME280;37382;45.192;9.790;2023-02-28T15:13:01;101666.88;;;21.13;32.94
51299;BME280;37382;45.192;9.790;2023-02-28T15:15:59;101675.78;;;19.12;36.08
51299;BME280;37382;45.192;9.790;2023-02-28T15:18:55;101689.03;;;17.66;37.15
51299;BME280;37382;45.192;9.790;2023-02-28T15:21:25;101692.94;;;15.25;41.49
51299;BME280;37382;45.192;9.790;2023-02-28T15:24:21;101699.63;;;14.39;43.73
51299;BME280;37382;45.192;9.790;2023-02-28T15:27:04;101692.59;;;13.80;45.53
51299;BME280;37382;45.192;9.790;2023-02-28T15:29:35;101691.78;;;13.80;45.46
51299;BME280;37382;45.192;9.790;2023-02-28T15:32:07;101689.22;;;13.78;46.68
51299;BME280;37382;45.192;9.790;2023-02-28T15:34:43;101691.16;;;13.41;47.58
51299;BME280;37382;45.192;9.790;2023-02-28T15:39:55;101679.00;;;15.14;46.29
51299;BME280;37382;45.192;9.790;2023-02-28T15:42:28;101682.34;;;16.17;43.92
51299;BME280;37382;45.192;9.790;2023-02-28T15:44:56;101670.59;;;17.66;41.12
51299;BME280;37382;45.192;9.790;2023-02-28T15:47:27;101671.84;;;18.90;39.48
51299;BME280;37382;45.192;9.790;2023-02-28T15:49:59;101669.31;;;19.37;38.53
51299;BME280;37382;45.192;9.790;2023-02-28T15:52:28;101668.47;;;20.33;37.77
51299;BME280;37382;45.192;9.790;2023-02-28T15:57:44;101673.44;;;19.46;38.34
51299;BME280;37382;45.192;9.790;2023-02-28T16:00:16;101673.13;;;18.50;39.85
51299;BME280;37382;45.192;9.790;2023-02-28T16:02:45;101680.00;;;15.88;43.42
51299;BME280;37382;45.192;9.790;2023-02-28T16:05:30;101680.16;;;15.73;44.87
51299;BME280;37382;45.192;9.790;2023-02-28T16:08:12;101680.50;;;13.68;47.95
51299;BME280;37382;45.192;9.790;2023-02-28T16:10:41;101679.00;;;15.27;46.18
51299;BME280;37382;45.192;9.790;2023-02-28T16:13:09;101686.56;;;13.63;48.20
51299;BME280;37382;45.192;9.790;2023-02-28T16:15:42;101681.38;;;13.53;49.42
51299;BME280;37382;45.192;9.790;2023-02-28T16:18:11;101684.53;;;12.99;50.76
51299;BME280;37382;45.192;9.790;2023-02-28T16:20:39;101692.50;;;11.10;54.97
51299;BME280;37382;45.192;9.790;2023-02-28T16:23:06;101692.63;;;11.17;55.92
51299;BME280;37382;45.192;9.790;2023-02-28T16:25:37;101687.66;;;12.66;53.63
51299;BME280;37382;45.192;9.790;2023-02-28T16:28:21;101683.19;;;12.20;54.11
51299;BME280;37382;45.192;9.790;2023-02-28T16:30:51;101681.41;;;11.43;56.72
51299;BME280;37382;45.192;9.790;2023-02-28T16:33:19;101684.41;;;11.25;58.04
51299;BME280;37382;45.192;9.790;2023-02-28T16:35:47;101682.88;;;10.43;58.96
51299;BME280;37382;45.192;9.790;2023-02-28T16:38:14;101679.69;;;9.90;61.76
51299;BME280;37382;45.192;9.790;2023-02-28T16:40:42;101678.31;;;9.61;63.28
51299;BME280;37382;45.192;9.790;2023-02-28T16:43:15;101688.09;;;9.21;65.35
51299;BME280;37382;45.192;9.790;2023-02-28T16:45:45;101697.56;;;9.09;66.81
51299;BME280;37382;45.192;9.790;2023-02-28T16:48:15;101684.94;;;9.00;67.90
51299;BME280;37382;45.192;9.790;2023-02-28T16:50:43;101687.53;;;9.18;69.15
51299;BME280;37382;45.192;9.790;2023-02-28T16:53:13;101687.38;;;9.11;69.55
51299;BME280;37382;45.192;9.790;2023-02-28T16:55:40;101688.25;;;9.28;69.33
51299;BME280;37382;45.192;9.790;2023-02-28T16:58:13;101682.94;;;9.02;70.02
51299;BME280;37382;45.192;9.790;2023-02-28T17:00:42;101688.13;;;8.87;71.68
51299;BME280;37382;45.192;9.790;2023-02-28T17:03:21;101688.03;;;8.62;73.63
51299;BME280;37382;45.192;9.790;2023-02-28T17:06:00;101691.41;;;8.64;74.09
51299;BME280;37382;45.192;9.790;2023-02-28T17:08:27;101695.06;;;8.29;76.11
51299;BME280;37382;45.192;9.790;2023-02-28T17:10:58;101692.88;;;8.06;78.37
51299;BME280;37382;45.192;9.790;2023-02-28T17:13:26;101693.72;;;8.07;80.21
51299;BME280;37382;45.192;9.790;2023-02-28T17:15:54;101692.53;;;7.83;83.34
51299;BME280;37382;45.192;9.790;2023-02-28T17:18:21;101693.00;;;7.78;85.82
51299;BME280;37382;45.192;9.790;2023-02-28T17:20:49;101698.56;;;7.95;86.20
51299;BME280;37382;45.192;9.790;2023-02-28T17:23:16;101700.56;;;7.75;87.32
51299;BME280;37382;45.192;9.790;2023-02-28T17:25:43;101704.31;;;7.74;89.67
51299;BME280;37382;45.192;9.790;2023-02-28T17:28:23;101698.88;;;7.74;91.16
51299;BME280;37382;45.192;9.790;2023-02-28T17:30:52;101703.38;;;7.83;90.86
51299;BME280;37382;45.192;9.790;2023-02-28T17:33:20;101705.50;;;7.79;91.97
51299;BME280;37382;45.192;9.790;2023-02-28T17:35:48;101702.84;;;7.61;93.35
51299;BME280;37382;45.192;9.790;2023-02-28T17:38:17;101704.66;;;7.61;95.15
51299;BME280;37382;45.192;9.790;2023-02-28T17:40:45;101708.09;;;7.63;96.61
51299;BME280;37382;45.192;9.790;2023-02-28T17:43:13;101710.72;;;7.91;97.11
51299;BME280;37382;45.192;9.790;2023-02-28T17:45:41;101707.38;;;7.61;96.97
51299;BME280;37382;45.192;9.790;2023-02-28T17:48:10;101707.53;;;7.59;98.34
51299;BME280;37382;45.192;9.790;2023-02-28T17:50:38;101709.94;;;7.62;99.28
51299;BME280;37382;45.192;9.790;2023-02-28T17:53:05;101708.16;;;7.53;100.00
51299;BME280;37382;45.192;9.790;2023-02-28T17:55:33;101716.75;;;7.48;100.00
51299;BME280;37382;45.192;9.790;2023-02-28T17:58:02;101717.84;;;7.92;100.00
51299;BME280;37382;45.192;9.790;2023-02-28T18:00:31;101717.91;;;8.26;97.68
51299;BME280;37382;45.192;9.790;2023-02-28T18:03:00;101721.75;;;7.97;96.99
51299;BME280;37382;45.192;9.790;2023-02-28T18:05:28;101715.16;;;8.18;96.99
51299;BME280;37382;45.192;9.790;2023-02-28T18:07:56;101714.84;;;8.21;96.74
51299;BME280;37382;45.192;9.790;2023-02-28T18:10:23;101714.81;;;7.95;96.77
51299;BME280;37382;45.192;9.790;2023-02-28T18:12:51;101724.25;;;8.09;96.98
51299;BME280;37382;45.192;9.790;2023-02-28T18:15:21;101714.56;;;8.06;97.96
51299;BME280;37382;45.192;9.790;2023-02-28T18:17:49;101714.19;;;7.65;98.68
51299;BME280;37382;45.192;9.790;2023-02-28T18:20:17;101714.66;;;7.42;100.00
51299;BME280;37382;45.192;9.790;2023-02-28T18:22:45;101718.75;;;7.46;100.00
51299;BME280;37382;45.192;9.790;2023-02-28T18:25:13;101710.19;;;7.51;100.00
51299;BME280;37382;45.192;9.790;2023-02-28T18:27:43;101716.19;;;7.27;100.00
51299;BME280;37382;45.192;9.790;2023-02-28T18:30:21;101717.44;;;7.05;100.00
51299;BME280;37382;45.192;9.790;2023-02-28T18:32:48;101724.09;;;7.10;100.00
51299;BME280;37382;45.192;9.790;2023-02-28T18:35:16;101713.97;;;7.12;100.00
51299;BME280;37382;45.192;9.790;2023-02-28T18:40:32;101713.78;;;7.24;100.00
51299;BME280;37382;45.192;9.790;2023-02-28T18:43:00;101710.69;;;7.19;100.00
51299;BME280;37382;45.192;9.790;2023-02-28T18:45:29;101715.72;;;7.32;100.00
51299;BME280;37382;45.192;9.790;2023-02-28T18:47:57;101717.31;;;7.24;100.00
51299;BME280;37382;45.192;9.790;2023-02-28T18:50:24;101713.66;;;7.43;100.00
51299;BME280;37382;45.192;9.790;2023-02-28T18:52:52;101727.22;;;7.16;100.00
51299;BME280;37382;45.192;9.790;2023-02-28T18:55:20;101711.88;;;7.06;100.00
51299;BME280;37382;45.192;9.790;2023-02-28T18:57:49;101723.41;;;6.81;100.00
51299;BME280;37382;45.192;9.790;2023-02-28T19:00:17;101722.19;;;7.21;100.00
51299;BME280;37382;45.192;9.790;2023-02-28T19:02:48;101722.63;;;7.44;100.00
51299;BME280;37382;45.192;9.790;2023-02-28T19:05:17;101722.72;;;7.24;100.00
51299;BME280;37382;45.192;9.790;2023-02-28T19:07:45;101731.16;;;7.21;100.00
51299;BME280;37382;45.192;9.790;2023-02-28T19:10:13;101724.22;;;7.19;100.00
51299;BME280;37382;45.192;9.790;2023-02-28T19:12:41;101732.06;;;7.12;100.00
51299;BME280;37382;45.192;9.790;2023-02-28T19:15:10;101720.88;;;6.97;100.00
51299;BME280;37382;45.192;9.790;2023-02-28T19:17:38;101725.16;;;6.62;100.00
51299;BME280;37382;45.192;9.790;2023-02-28T19:20:07;101719.66;;;6.54;100.00
51299;BME280;37382;45.192;9.790;2023-02-28T19:22:36;101723.94;;;6.47;100.00
51299;BME280;37382;45.192;9.790;2023-02-28T19:25:05;101727.09;;;6.32;100.00
51299;BME280;37382;45.192;9.790;2023-02-28T19:27:32;101724.56;;;6.21;100.00
51299;BME280;37382;45.192;9.790;2023-02-28T19:30:01;101728.50;;;6.36;100.00
51299;BME280;37382;45.192;9.790;2023-02-28T19:32:30;101735.03;;;6.44;100.00
51299;BME280;37382;45.192;9.790;2023-02-28T19:34:58;101732.88;;;6.57;100.00
51299;BME280;37382;45.192;9.790;2023-02-28T19:37:25;101738.13;;;6.58;100.00
51299;BME280;37382;45.192;9.790;2023-02-28T19:39:53;101729.81;;;6.70;100.00
51299;BME280;37382;45.192;9.790;2023-02-28T19:42:23;101724.78;;;6.85;100.00
51299;BME280;37382;45.192;9.790;2023-02-28T19:44:51;101732.88;;;6.94;100.00
51299;BME280;37382;45.192;9.790;2023-02-28T19:47:18;101731.44;;;6.63;100.00
51299;BME280;37382;45.192;9.790;2023-02-28T19:49:46;101737.19;;;6.30;100.00
51299;BME280;37382;45.192;9.790;2023-02-28T19:52:15;101733.34;;;6.43;100.00
51299;BME280;37382;45.192;9.790;2023-02-28T19:54:42;101739.44;;;6.35;100.00
51299;BME280;37382;45.192;9.790;2023-02-28T19:57:10;101733.66;;;6.30;100.00
51299;BME280;37382;45.192;9.790;2023-02-28T19:59:38;101738.09;;;6.68;100.00
51299;BME280;37382;45.192;9.790;2023-02-28T20:02:14;101734.63;;;6.38;100.00
51299;BME280;37382;45.192;9.790;2023-02-28T20:04:45;101729.19;;;6.48;100.00
51299;BME280;37382;45.192;9.790;2023-02-28T20:07:14;101736.25;;;6.59;100.00
51299;BME280;37382;45.192;9.790;2023-02-28T20:09:42;101730.31;;;6.55;100.00
51299;BME280;37382;45.192;9.790;2023-02-28T20:12:11;101732.88;;;6.57;100.00
51299;BME280;37382;45.192;9.790;2023-02-28T20:14:51;101740.72;;;6.40;100.00